Dona Ana, NM (88032)

3:20 PM MST on February 19, 2017 (GMT -0700)
El Rancho Grande | | Change Station

Elev 4170 ft 32.40 °N, 106.79 °W | Updated 6 seconds ago

Mostly Cloudy
Mostly Cloudy
55.4 °F
Feels Like 55.4 °F
N
9.6
Wind Variable Wind from West
Gusts 12.3 mph

Today
High -- | Low -- °F
--% Chance of Precip.
Yesterday
High -- | Low -- °F
Precip. -- in
Pressure 29.94 in
Visibility 10.0 miles
Clouds Scattered Clouds 2100 ft
Scattered Clouds 5000 ft
Mostly Cloudy 7500 ft
Dew Point 31 °F
Humidity 39%
Rainfall 0.07 in
Snow Depth Not available.
6:45 AM 5:56 PM
Last Quarter, 40% visible
METAR KLRU 192215Z AUTO 28014G20KT 10SM SCT021 SCT050 BKN075 12/00 A2994 RMK AO2 T01171005
Pressure 29.94 in
Visibility 10.0 miles
Clouds Scattered Clouds 2100 ft
Scattered Clouds 5000 ft
Mostly Cloudy 7500 ft
Dew Point 31 °F
Humidity 39%
Rainfall 0.07 in
Snow Depth Not available.
6:45 AM 5:56 PM
Last Quarter, 40% visible
METAR KLRU 192215Z AUTO 28014G20KT 10SM SCT021 SCT050 BKN075 12/00 A2994 RMK AO2 T01171005

Get Your Daily Forecast Email!

Thanks for signing up!

Be on the lookout for a verification email in your inbox.

You'll start receiving the daily forecast at 8 AM.

×

10-Day Weather Forecast

Almanac

Astronomy

Feb. 19, 2017 Rise Set
Actual Time
Civil Twilight
Nautical Twilight
Astronomical Twilight
Moon
Length of Visible Light
Length of Day
Tomorrow will be .
, % of the Moon is Illuminated

Today's Extremes

State Highs State Lows

Community

WunderPhotos

Upload Photos

1,962,540 photos uploaded!

WunderBlog® & News

Nearby

Air Quality

  Air Quality AQ Index Pollutant
Not available.

Snow Depth

Station Depth Elevation

Earthquake Activity

City Distance Mag. Time & Date
Minimum magnitude displayed is 2.5.

Coastal Water Temperatures

Place Temperature

Stations

Nearby Weather Stations

Station Location Temp. Windchill Dew Point Humidity Wind Precip. Elev Updated Type
                   

Watches & Warnings

There are currently no watches in effect.